createdAt,value
2022-09-30T00:01:51.331Z,10.17
2022-09-30T00:04:20.580Z,10.13
2022-09-30T00:06:48.048Z,10.10
2022-09-30T00:09:15.047Z,10.07
2022-09-30T00:11:42.611Z,10.04
2022-09-30T00:14:15.045Z,10.01
2022-09-30T00:16:41.579Z,10.00
2022-09-30T00:19:08.372Z,9.96
2022-09-30T00:21:34.835Z,9.96
2022-09-30T00:24:01.838Z,9.93
2022-09-30T00:26:28.234Z,9.90
2022-09-30T00:28:59.029Z,9.88
2022-09-30T00:31:28.821Z,9.87
2022-09-30T00:34:07.566Z,9.85
2022-09-30T00:36:45.934Z,9.84
2022-09-30T00:39:20.902Z,9.84
2022-09-30T00:41:51.668Z,9.83
2022-09-30T00:44:43.285Z,9.79
2022-09-30T00:47:22.052Z,9.76
2022-09-30T00:49:48.736Z,9.72
2022-09-30T00:52:15.174Z,9.71
2022-09-30T00:54:41.787Z,9.68
2022-09-30T00:57:08.960Z,9.67
2022-09-30T00:59:39.770Z,9.63
2022-09-30T01:02:06.565Z,9.62
2022-09-30T01:04:35.019Z,9.61
2022-09-30T01:07:06.617Z,9.61
2022-09-30T01:09:34.224Z,9.60
2022-09-30T01:12:07.375Z,9.59
2022-09-30T01:14:34.842Z,9.58
2022-09-30T01:17:10.643Z,9.56
2022-09-30T01:20:17.002Z,9.54
2022-09-30T01:22:52.402Z,9.53
2022-09-30T01:25:39.082Z,9.51
2022-09-30T01:28:20.706Z,9.47
2022-09-30T01:31:19.441Z,9.46
2022-09-30T01:34:11.298Z,9.41
2022-09-30T01:37:05.512Z,9.41
2022-09-30T01:39:46.303Z,9.37
2022-09-30T01:42:49.894Z,9.36
2022-09-30T01:45:20.662Z,9.34
2022-09-30T01:47:58.040Z,9.33
2022-09-30T01:50:50.717Z,9.31
2022-09-30T01:53:45.072Z,9.29
2022-09-30T01:56:33.901Z,9.26
2022-09-30T01:59:05.044Z,9.24
2022-09-30T02:01:39.114Z,9.22
2022-09-30T02:04:09.870Z,9.20
2022-09-30T02:06:40.929Z,9.18
2022-09-30T02:09:11.673Z,9.16
2022-09-30T02:11:38.676Z,9.13
2022-09-30T02:14:26.072Z,9.13
2022-09-30T02:17:07.073Z,9.12
2022-09-30T02:19:44.000Z,9.10
2022-09-30T02:22:15.509Z,9.08
2022-09-30T02:24:43.787Z,9.08
2022-09-30T02:27:15.562Z,9.04
2022-09-30T02:29:45.946Z,9.03
2022-09-30T02:32:21.094Z,9.01
2022-09-30T02:35:11.692Z,8.98
2022-09-30T02:37:42.618Z,8.97
2022-09-30T02:40:12.136Z,8.95
2022-09-30T02:42:39.363Z,8.90
2022-09-30T02:45:10.214Z,8.88
2022-09-30T02:47:42.494Z,8.86
2022-09-30T02:50:17.954Z,8.85
2022-09-30T02:53:11.398Z,8.82
2022-09-30T02:56:34.883Z,8.79
2022-09-30T02:59:01.353Z,8.80
2022-09-30T03:01:27.777Z,8.76
2022-09-30T03:03:57.769Z,8.75
2022-09-30T03:06:24.254Z,8.70
2022-09-30T03:08:53.544Z,8.68
2022-09-30T03:11:22.937Z,8.66
2022-09-30T03:14:01.805Z,8.63
2022-09-30T03:16:44.553Z,8.62
2022-09-30T03:19:19.785Z,8.61
2022-09-30T03:22:15.197Z,8.59
2022-09-30T03:24:49.197Z,8.60
2022-09-30T03:27:45.452Z,8.59
2022-09-30T03:30:17.919Z,8.59
2022-09-30T03:33:08.241Z,8.58
2022-09-30T03:35:50.209Z,8.57
2022-09-30T03:38:36.959Z,8.56
2022-09-30T03:41:33.156Z,8.53
2022-09-30T03:44:15.157Z,8.52
2022-09-30T03:46:54.423Z,8.51
2022-09-30T03:49:24.031Z,8.50
2022-09-30T03:51:51.143Z,8.46
2022-09-30T03:54:17.647Z,8.43
2022-09-30T03:56:44.182Z,8.41
2022-09-30T03:59:12.371Z,8.40
2022-09-30T04:01:39.745Z,8.39
2022-09-30T04:04:06.224Z,8.38
2022-09-30T04:06:32.681Z,8.35
2022-09-30T04:08:59.152Z,8.33
2022-09-30T04:11:25.614Z,8.31
2022-09-30T04:13:52.075Z,8.30
2022-09-30T04:16:19.046Z,8.30
2022-09-30T04:18:45.521Z,8.29
2022-09-30T04:21:14.132Z,8.30
2022-09-30T04:23:41.554Z,8.30
2022-09-30T04:26:11.467Z,8.27
2022-09-30T04:28:37.874Z,8.25
2022-09-30T04:31:05.713Z,8.22
2022-09-30T04:33:32.467Z,8.20
2022-09-30T04:36:00.248Z,8.18
2022-09-30T04:38:27.555Z,8.16
2022-09-30T04:40:55.692Z,8.12
2022-09-30T04:43:23.465Z,8.10
2022-09-30T04:45:51.246Z,8.08
2022-09-30T04:48:17.731Z,8.06
2022-09-30T04:50:44.556Z,8.05
2022-09-30T04:53:13.205Z,8.02
2022-09-30T04:55:39.619Z,8.00
2022-09-30T04:58:06.038Z,8.00
2022-09-30T05:00:32.502Z,7.99
2022-09-30T05:02:58.989Z,7.98
2022-09-30T05:05:25.461Z,7.99
2022-09-30T05:07:51.935Z,7.98
2022-09-30T05:10:18.346Z,7.98
2022-09-30T05:12:45.888Z,7.97
2022-09-30T05:15:12.296Z,7.96
2022-09-30T05:17:38.722Z,7.95
2022-09-30T05:20:10.670Z,7.94
2022-09-30T05:22:38.239Z,7.97
2022-09-30T05:25:05.106Z,7.98
2022-09-30T05:27:32.578Z,7.97
2022-09-30T05:29:58.981Z,7.97
2022-09-30T05:32:25.528Z,7.97
2022-09-30T05:34:52.216Z,7.99
2022-09-30T05:37:18.913Z,8.01
2022-09-30T05:39:45.343Z,8.03
2022-09-30T05:42:14.064Z,8.06
2022-09-30T05:44:40.654Z,8.08
2022-09-30T05:47:07.137Z,8.10
2022-09-30T05:49:34.946Z,8.12
2022-09-30T05:52:01.598Z,8.16
2022-09-30T05:54:27.991Z,8.20
2022-09-30T05:56:54.407Z,8.24
2022-09-30T05:59:20.877Z,8.29
2022-09-30T06:01:47.382Z,8.31
2022-09-30T06:04:13.855Z,8.33
2022-09-30T06:06:40.295Z,8.36
2022-09-30T06:09:06.845Z,8.37
2022-09-30T06:11:34.910Z,8.38
2022-09-30T06:14:01.311Z,8.38
2022-09-30T06:16:27.845Z,8.41
2022-09-30T06:18:55.356Z,8.43
2022-09-30T06:21:22.755Z,8.46
2022-09-30T06:23:49.154Z,8.49
2022-09-30T06:26:28.962Z,8.51
2022-09-30T06:28:55.709Z,8.54
2022-09-30T06:31:22.235Z,8.57
2022-09-30T06:33:52.475Z,8.63
2022-09-30T06:36:18.881Z,8.69
2022-09-30T06:38:45.514Z,8.73
2022-09-30T06:41:11.944Z,8.77
2022-09-30T06:43:44.865Z,8.84
2022-09-30T06:46:20.510Z,8.89
2022-09-30T06:49:07.938Z,8.98
2022-09-30T06:51:37.457Z,9.07
2022-09-30T06:54:03.837Z,9.14
2022-09-30T06:56:31.980Z,9.24
2022-09-30T06:58:58.413Z,9.33
2022-09-30T07:01:24.962Z,9.40
2022-09-30T07:03:57.801Z,9.47
2022-09-30T07:06:26.311Z,9.55
2022-09-30T07:08:54.082Z,9.63
2022-09-30T07:11:20.829Z,9.70
2022-09-30T07:13:49.133Z,9.78
2022-09-30T07:16:21.205Z,9.86
2022-09-30T07:18:47.762Z,9.95
2022-09-30T07:21:16.107Z,10.06
2022-09-30T07:23:47.755Z,10.17
2022-09-30T07:26:15.916Z,10.24
2022-09-30T07:28:43.663Z,10.34
2022-09-30T07:31:32.917Z,10.42
2022-09-30T07:33:59.140Z,10.52
2022-09-30T07:36:32.650Z,10.58
2022-09-30T07:39:05.213Z,10.65
2022-09-30T07:41:31.804Z,10.75
2022-09-30T07:44:01.448Z,10.84
2022-09-30T07:46:30.591Z,10.92
2022-09-30T07:49:04.043Z,11.00
2022-09-30T07:51:33.600Z,11.09
2022-09-30T07:54:13.603Z,11.16
2022-09-30T07:57:08.294Z,11.24
2022-09-30T07:59:29.182Z,11.32
2022-09-30T08:01:55.715Z,11.38
2022-09-30T08:04:23.892Z,11.50
2022-09-30T08:06:56.149Z,11.58
2022-09-30T08:09:24.738Z,11.66
2022-09-30T08:11:51.408Z,11.75
2022-09-30T08:14:20.763Z,11.81
2022-09-30T08:16:47.577Z,11.85
2022-09-30T08:19:16.604Z,11.92
2022-09-30T08:21:43.639Z,12.01
2022-09-30T08:24:10.672Z,12.07
2022-09-30T08:26:37.257Z,12.13
2022-09-30T08:29:03.744Z,12.22
2022-09-30T08:31:30.253Z,12.25
2022-09-30T08:33:57.694Z,12.31
2022-09-30T08:36:25.334Z,12.40
2022-09-30T08:38:52.058Z,12.48
2022-09-30T08:41:57.829Z,12.58
2022-09-30T08:44:39.124Z,12.61
2022-09-30T08:47:33.296Z,12.70
2022-09-30T08:50:14.933Z,12.74
2022-09-30T08:52:51.721Z,12.82
2022-09-30T08:55:26.820Z,12.88
2022-09-30T08:57:55.799Z,12.94
2022-09-30T09:00:22.681Z,13.01
2022-09-30T09:02:55.765Z,13.07
2022-09-30T09:05:55.224Z,13.14
2022-09-30T09:08:33.121Z,13.23
2022-09-30T09:11:42.715Z,13.29
2022-09-30T09:14:19.039Z,13.33
2022-09-30T09:16:58.835Z,13.39
2022-09-30T09:19:26.397Z,13.43
2022-09-30T09:22:02.305Z,13.46
2022-09-30T09:24:38.150Z,13.53
2022-09-30T09:27:17.136Z,13.59
2022-09-30T09:30:00.045Z,13.63
2022-09-30T09:32:27.409Z,13.70
2022-09-30T09:35:15.692Z,13.75
2022-09-30T09:38:18.499Z,13.82
2022-09-30T09:41:18.330Z,13.85
2022-09-30T09:43:50.796Z,13.92
2022-09-30T09:46:26.178Z,13.98
2022-09-30T09:49:24.101Z,14.05
2022-09-30T09:52:05.690Z,14.08
2022-09-30T09:54:33.622Z,14.12
2022-09-30T09:57:15.683Z,14.18
2022-09-30T10:00:27.020Z,14.26
2022-09-30T10:03:12.408Z,14.30
2022-09-30T10:05:42.205Z,14.35
2022-09-30T10:08:21.711Z,14.40
2022-09-30T10:11:14.407Z,14.45
2022-09-30T10:13:45.309Z,14.48
2022-09-30T10:16:36.900Z,14.50
2022-09-30T10:19:21.930Z,14.56
2022-09-30T10:21:50.915Z,14.59
2022-09-30T10:24:30.791Z,14.65
2022-09-30T10:26:57.295Z,14.72
2022-09-30T10:29:34.594Z,14.75
2022-09-30T10:32:02.566Z,14.81
2022-09-30T10:34:34.465Z,14.84
2022-09-30T10:37:21.590Z,14.88
2022-09-30T10:40:09.072Z,14.88
2022-09-30T10:42:39.421Z,14.95
2022-09-30T10:45:33.062Z,14.96
2022-09-30T10:48:00.739Z,15.00
2022-09-30T10:50:27.707Z,15.06
2022-09-30T10:52:59.755Z,15.11
2022-09-30T10:55:42.478Z,15.14
2022-09-30T10:58:22.527Z,15.18
2022-09-30T11:00:51.143Z,15.23
2022-09-30T11:03:21.521Z,15.27
2022-09-30T11:05:49.725Z,15.29
2022-09-30T11:08:23.320Z,15.28
2022-09-30T11:10:54.321Z,15.33
2022-09-30T11:13:28.580Z,15.32
2022-09-30T11:16:17.497Z,15.37
2022-09-30T11:18:58.067Z,15.46
2022-09-30T11:21:29.915Z,15.48
2022-09-30T11:24:30.139Z,15.51
2022-09-30T11:27:14.668Z,15.58
2022-09-30T11:29:47.157Z,15.64
2022-09-30T11:32:39.093Z,15.69
2022-09-30T11:35:28.593Z,15.77
2022-09-30T11:38:00.837Z,15.82
2022-09-30T11:40:44.472Z,15.84
2022-09-30T11:43:13.705Z,15.94
2022-09-30T11:46:18.654Z,16.00
2022-09-30T11:49:06.863Z,16.05
2022-09-30T11:51:53.228Z,16.11
2022-09-30T11:54:57.050Z,16.17
2022-09-30T11:57:28.292Z,16.23
2022-09-30T12:00:10.037Z,16.28
2022-09-30T12:02:44.019Z,16.35
2022-09-30T12:05:33.437Z,16.39
2022-09-30T12:08:36.270Z,16.43
2022-09-30T12:11:08.041Z,16.41
2022-09-30T12:13:38.976Z,16.43
2022-09-30T12:16:11.686Z,16.52
2022-09-30T12:18:41.873Z,16.58
2022-09-30T12:21:31.209Z,16.63
2022-09-30T12:24:06.343Z,16.70
2022-09-30T12:26:33.527Z,16.75
2022-09-30T12:29:32.630Z,16.77
2022-09-30T12:32:27.425Z,16.79
2022-09-30T12:35:14.906Z,16.80
2022-09-30T12:38:16.701Z,16.81
2022-09-30T12:40:52.657Z,16.82
2022-09-30T12:43:38.593Z,16.86
2022-09-30T12:46:29.326Z,16.90
2022-09-30T12:49:03.767Z,16.97
2022-09-30T12:51:32.370Z,17.04
2022-09-30T12:54:04.031Z,17.04
2022-09-30T12:56:32.142Z,16.99
2022-09-30T12:59:00.514Z,16.97
2022-09-30T13:01:31.340Z,16.96
2022-09-30T13:03:59.197Z,16.97
2022-09-30T13:06:27.229Z,16.99
2022-09-30T13:08:56.605Z,17.01
2022-09-30T13:11:33.374Z,16.99
2022-09-30T13:14:47.663Z,17.01
2022-09-30T13:17:13.969Z,17.07
2022-09-30T13:19:54.104Z,17.09
2022-09-30T13:22:29.714Z,17.12
2022-09-30T13:25:05.222Z,17.15
2022-09-30T13:27:37.331Z,17.20
2022-09-30T13:30:15.990Z,17.23
2022-09-30T13:32:42.717Z,17.27
2022-09-30T13:35:34.068Z,17.25
2022-09-30T13:38:12.880Z,17.25
2022-09-30T13:41:03.466Z,17.22
2022-09-30T13:43:52.138Z,17.19
2022-09-30T13:46:29.732Z,17.16
2022-09-30T13:49:04.275Z,17.15
2022-09-30T13:51:33.146Z,17.14
2022-09-30T13:54:06.295Z,17.17
2022-09-30T13:56:35.175Z,17.25
2022-09-30T13:59:17.120Z,17.30
2022-09-30T14:02:12.874Z,17.39
2022-09-30T14:04:50.885Z,17.46
2022-09-30T14:07:42.135Z,17.51
2022-09-30T14:10:29.839Z,17.57
2022-09-30T14:13:02.692Z,17.58
2022-09-30T14:16:01.704Z,17.63
2022-09-30T14:18:44.346Z,17.65
2022-09-30T14:21:36.000Z,17.68
2022-09-30T14:24:09.438Z,17.70
2022-09-30T14:27:06.289Z,17.74
2022-09-30T14:29:54.387Z,17.78
2022-09-30T14:32:26.866Z,17.77
2022-09-30T14:34:53.445Z,17.82
2022-09-30T14:37:24.575Z,17.84
2022-09-30T14:39:51.086Z,17.88
2022-09-30T14:42:25.289Z,17.92
2022-09-30T14:44:52.062Z,17.89
2022-09-30T14:47:19.324Z,17.84
2022-09-30T14:49:45.756Z,17.83
2022-09-30T14:52:35.471Z,17.84
2022-09-30T14:55:01.882Z,17.82
2022-09-30T14:57:28.281Z,17.80
2022-09-30T15:00:32.320Z,17.78
2022-09-30T15:02:59.326Z,17.76
2022-09-30T15:05:26.838Z,17.76
2022-09-30T15:07:54.105Z,17.77
2022-09-30T15:10:22.967Z,17.74
2022-09-30T15:12:50.768Z,17.72
2022-09-30T15:15:35.706Z,17.70
2022-09-30T15:18:42.590Z,17.69
2022-09-30T15:21:16.165Z,17.66
2022-09-30T15:23:46.259Z,17.66
2022-09-30T15:26:13.245Z,17.63
2022-09-30T15:28:39.889Z,17.61
2022-09-30T15:31:07.755Z,17.60
2022-09-30T15:33:34.968Z,17.59
2022-09-30T15:36:16.737Z,17.59
2022-09-30T15:38:48.711Z,17.55
2022-09-30T15:41:15.567Z,17.51
2022-09-30T15:43:45.225Z,17.50
2022-09-30T15:46:27.997Z,17.46
2022-09-30T15:48:56.641Z,17.42
2022-09-30T15:51:35.134Z,17.36
2022-09-30T15:54:23.833Z,17.35
2022-09-30T15:56:50.225Z,17.33
2022-09-30T15:59:16.753Z,17.31
2022-09-30T16:01:48.389Z,17.29
2022-09-30T16:04:22.822Z,17.27
2022-09-30T16:06:52.248Z,17.23
2022-09-30T16:09:18.705Z,17.20
2022-09-30T16:11:48.639Z,17.17
2022-09-30T16:14:22.165Z,17.14
2022-09-30T16:16:51.356Z,17.11
2022-09-30T16:19:19.033Z,17.07
2022-09-30T16:21:50.664Z,17.04
2022-09-30T16:24:23.155Z,17.00
2022-09-30T16:26:49.936Z,16.96
2022-09-30T16:29:17.925Z,16.92
2022-09-30T16:31:45.943Z,16.86
2022-09-30T16:34:22.374Z,16.79
2022-09-30T16:36:49.571Z,16.74
2022-09-30T16:39:16.680Z,16.69
2022-09-30T16:41:43.521Z,16.63
2022-09-30T16:44:10.394Z,16.57
2022-09-30T16:46:37.155Z,16.49
2022-09-30T16:49:13.831Z,16.43
2022-09-30T16:51:40.242Z,16.35
2022-09-30T16:54:06.685Z,16.29
2022-09-30T16:56:33.412Z,16.24
2022-09-30T16:58:59.965Z,16.18
2022-09-30T17:01:26.671Z,16.11
2022-09-30T17:03:55.154Z,16.06
2022-09-30T17:06:28.404Z,15.99
2022-09-30T17:08:55.318Z,15.93
2022-09-30T17:11:26.830Z,15.88
2022-09-30T17:13:53.239Z,15.81
2022-09-30T17:16:19.686Z,15.75
2022-09-30T17:18:46.108Z,15.70
2022-09-30T17:21:12.511Z,15.64
2022-09-30T17:23:39.248Z,15.59
2022-09-30T17:26:06.363Z,15.52
2022-09-30T17:28:34.629Z,15.46
2022-09-30T17:31:01.113Z,15.39
2022-09-30T17:33:35.402Z,15.34
2022-09-30T17:36:07.197Z,15.27
2022-09-30T17:38:34.401Z,15.21
2022-09-30T17:41:20.119Z,15.17
2022-09-30T17:43:46.542Z,15.10
2022-09-30T17:46:19.005Z,15.04
2022-09-30T17:48:46.566Z,14.99
2022-09-30T17:51:15.063Z,14.93
2022-09-30T17:53:42.088Z,14.89
2022-09-30T17:56:16.920Z,14.82
2022-09-30T17:58:47.221Z,14.78
2022-09-30T18:01:15.373Z,14.73
2022-09-30T18:03:42.104Z,14.69
2022-09-30T18:06:08.582Z,14.64
2022-09-30T18:08:35.751Z,14.59
2022-09-30T18:11:02.710Z,14.55
2022-09-30T18:13:29.435Z,14.51
2022-09-30T18:16:01.824Z,14.45
2022-09-30T18:18:29.378Z,14.41
2022-09-30T18:20:55.810Z,14.36
2022-09-30T18:23:22.218Z,14.32
2022-09-30T18:25:49.600Z,14.29
2022-09-30T18:28:16.764Z,14.22
2022-09-30T18:30:43.766Z,14.15
2022-09-30T18:33:10.931Z,14.07
2022-09-30T18:35:39.247Z,14.00
2022-09-30T18:38:06.792Z,13.93
2022-09-30T18:40:34.208Z,13.86
2022-09-30T18:43:05.365Z,13.81
2022-09-30T18:45:38.230Z,13.77
2022-09-30T18:48:07.405Z,13.73
2022-09-30T18:50:34.861Z,13.70
2022-09-30T18:53:09.494Z,13.65
2022-09-30T18:55:39.597Z,13.62
2022-09-30T18:58:06.183Z,13.59
2022-09-30T19:00:32.938Z,13.55
2022-09-30T19:02:59.491Z,13.52
2022-09-30T19:05:26.946Z,13.48
2022-09-30T19:07:54.092Z,13.46
2022-09-30T19:10:20.757Z,13.44
2022-09-30T19:12:47.572Z,13.40
2022-09-30T19:15:16.003Z,13.35
2022-09-30T19:17:43.618Z,13.30
2022-09-30T19:20:12.143Z,13.26
2022-09-30T19:22:39.616Z,13.22
2022-09-30T19:25:08.174Z,13.20
2022-09-30T19:27:38.260Z,13.15
2022-09-30T19:30:06.395Z,13.11
2022-09-30T19:32:35.681Z,13.05
2022-09-30T19:35:06.386Z,13.00
2022-09-30T19:37:33.485Z,12.94
2022-09-30T19:40:08.752Z,12.90
2022-09-30T19:42:39.358Z,12.84
2022-09-30T19:45:06.804Z,12.79
2022-09-30T19:47:34.500Z,12.74
2022-09-30T19:50:02.055Z,12.69
2022-09-30T19:52:28.532Z,12.65
2022-09-30T19:54:57.701Z,12.58
2022-09-30T19:57:26.526Z,12.53
2022-09-30T19:59:53.288Z,12.47
2022-09-30T20:02:21.321Z,12.43
2022-09-30T20:04:48.079Z,12.38
2022-09-30T20:07:14.971Z,12.32
2022-09-30T20:09:42.694Z,12.29
2022-09-30T20:12:10.847Z,12.25
2022-09-30T20:14:56.252Z,12.21
2022-09-30T20:17:22.926Z,12.18
2022-09-30T20:20:09.781Z,12.14
2022-09-30T20:22:36.236Z,12.11
2022-09-30T20:25:02.735Z,12.08
2022-09-30T20:27:30.978Z,12.08
2022-09-30T20:29:57.379Z,12.06
2022-09-30T20:32:23.855Z,12.03
2022-09-30T20:34:50.283Z,12.01
2022-09-30T20:37:16.691Z,11.99
2022-09-30T20:39:43.162Z,11.97
2022-09-30T20:42:09.573Z,11.94
2022-09-30T20:44:36.040Z,11.92
2022-09-30T20:47:02.660Z,11.90
2022-09-30T20:49:29.448Z,11.90
2022-09-30T20:51:55.855Z,11.87
2022-09-30T20:54:22.494Z,11.85
2022-09-30T20:57:06.883Z,11.83
2022-09-30T20:59:33.861Z,11.82
2022-09-30T21:02:00.349Z,11.81
2022-09-30T21:04:27.094Z,11.79
2022-09-30T21:06:53.531Z,11.77
2022-09-30T21:09:19.932Z,11.75
2022-09-30T21:11:46.339Z,11.71
2022-09-30T21:14:12.831Z,11.68
2022-09-30T21:16:39.414Z,11.66
2022-09-30T21:19:05.921Z,11.66
2022-09-30T21:21:35.643Z,11.62
2022-09-30T21:24:02.241Z,11.58
2022-09-30T21:26:28.674Z,11.53
2022-09-30T21:28:55.130Z,11.48
2022-09-30T21:31:24.748Z,11.45
2022-09-30T21:33:58.904Z,11.41
2022-09-30T21:36:26.910Z,11.36
2022-09-30T21:38:54.772Z,11.31
2022-09-30T21:41:21.325Z,11.29
2022-09-30T21:43:47.846Z,11.27
2022-09-30T21:46:15.526Z,11.25
2022-09-30T21:48:42.491Z,11.24
2022-09-30T21:51:09.822Z,11.22
2022-09-30T21:53:36.671Z,11.22
2022-09-30T21:56:04.010Z,11.21
2022-09-30T21:58:31.728Z,11.21
2022-09-30T22:01:00.591Z,11.21
2022-09-30T22:03:35.994Z,11.20
2022-09-30T22:06:03.104Z,11.21
2022-09-30T22:08:32.912Z,11.20
2022-09-30T22:11:00.339Z,11.18
2022-09-30T22:13:26.763Z,11.16
2022-09-30T22:16:03.195Z,11.15
2022-09-30T22:18:31.364Z,11.13
2022-09-30T22:21:03.330Z,11.08
2022-09-30T22:23:29.835Z,11.07
2022-09-30T22:25:57.371Z,11.05
2022-09-30T22:28:24.505Z,11.03
2022-09-30T22:30:50.970Z,11.01
2022-09-30T22:33:36.041Z,10.97
2022-09-30T22:36:20.967Z,10.95
2022-09-30T22:38:48.475Z,10.93
2022-09-30T22:41:16.702Z,10.89
2022-09-30T22:43:43.117Z,10.87
2022-09-30T22:46:09.584Z,10.86
2022-09-30T22:48:37.199Z,10.86
2022-09-30T22:51:04.537Z,10.85
2022-09-30T22:53:30.925Z,10.81
2022-09-30T22:55:57.550Z,10.80
2022-09-30T22:58:26.840Z,10.78
2022-09-30T23:00:54.636Z,10.76
2022-09-30T23:03:21.610Z,10.75
2022-09-30T23:05:48.674Z,10.72
2022-09-30T23:08:15.086Z,10.72
2022-09-30T23:10:51.411Z,10.69
2022-09-30T23:13:20.174Z,10.70
2022-09-30T23:15:47.713Z,10.70
2022-09-30T23:18:17.139Z,10.68
2022-09-30T23:20:54.161Z,10.67
2022-09-30T23:23:20.545Z,10.64
2022-09-30T23:25:46.953Z,10.64
2022-09-30T23:28:13.847Z,10.62
2022-09-30T23:30:40.347Z,10.63
2022-09-30T23:33:09.466Z,10.63
2022-09-30T23:35:35.928Z,10.62
2022-09-30T23:38:02.327Z,10.62
2022-09-30T23:40:28.730Z,10.61
2022-09-30T23:42:56.443Z,10.60
2022-09-30T23:45:22.924Z,10.60
2022-09-30T23:47:49.373Z,10.58
2022-09-30T23:50:15.961Z,10.56
2022-09-30T23:52:44.061Z,10.55
2022-09-30T23:55:11.558Z,10.55
2022-09-30T23:57:38.021Z,10.53
